sensor_id;sensor_type;location;lat;lon;timestamp;P1;durP1;ratioP1;P2;durP2;ratioP2
22814;SDS011;11574;51.058;13.712;2023-01-24T00:02:38;66.33;;;28.00;;
22814;SDS011;11574;51.058;13.712;2023-01-24T00:07:40;65.97;;;27.00;;
22814;SDS011;11574;51.058;13.712;2023-01-24T00:12:42;66.63;;;27.87;;
22814;SDS011;11574;51.058;13.712;2023-01-24T00:17:46;69.20;;;29.73;;
22814;SDS011;11574;51.058;13.712;2023-01-24T00:22:48;65.47;;;27.20;;
22814;SDS011;11574;51.058;13.712;2023-01-24T00:27:50;67.83;;;26.53;;
22814;SDS011;11574;51.058;13.712;2023-01-24T00:32:54;63.37;;;27.60;;
22814;SDS011;11574;51.058;13.712;2023-01-24T00:37:56;66.13;;;28.33;;
22814;SDS011;11574;51.058;13.712;2023-01-24T00:42:58;66.23;;;28.13;;
22814;SDS011;11574;51.058;13.712;2023-01-24T00:48:02;68.50;;;27.87;;
22814;SDS011;11574;51.058;13.712;2023-01-24T00:53:04;63.97;;;27.17;;
22814;SDS011;11574;51.058;13.712;2023-01-24T00:58:06;67.77;;;28.07;;
22814;SDS011;11574;51.058;13.712;2023-01-24T01:03:11;68.87;;;27.13;;
22814;SDS011;11574;51.058;13.712;2023-01-24T01:08:13;58.17;;;26.23;;
22814;SDS011;11574;51.058;13.712;2023-01-24T01:13:15;70.30;;;28.67;;
22814;SDS011;11574;51.058;13.712;2023-01-24T01:18:19;73.30;;;28.10;;
22814;SDS011;11574;51.058;13.712;2023-01-24T01:23:21;67.10;;;27.97;;
22814;SDS011;11574;51.058;13.712;2023-01-24T01:28:23;67.90;;;27.90;;
22814;SDS011;11574;51.058;13.712;2023-01-24T01:33:27;61.17;;;27.70;;
22814;SDS011;11574;51.058;13.712;2023-01-24T01:38:29;65.43;;;26.73;;
22814;SDS011;11574;51.058;13.712;2023-01-24T01:43:31;65.97;;;27.13;;
22814;SDS011;11574;51.058;13.712;2023-01-24T01:48:36;68.27;;;28.27;;
22814;SDS011;11574;51.058;13.712;2023-01-24T01:53:41;73.50;;;27.73;;
22814;SDS011;11574;51.058;13.712;2023-01-24T01:58:43;72.83;;;29.93;;
22814;SDS011;11574;51.058;13.712;2023-01-24T02:03:49;69.43;;;27.07;;
22814;SDS011;11574;51.058;13.712;2023-01-24T02:08:51;70.13;;;28.30;;
22814;SDS011;11574;51.058;13.712;2023-01-24T02:13:55;69.17;;;26.07;;
22814;SDS011;11574;51.058;13.712;2023-01-24T02:19:14;67.93;;;26.50;;
22814;SDS011;11574;51.058;13.712;2023-01-24T02:24:20;68.87;;;28.50;;
22814;SDS011;11574;51.058;13.712;2023-01-24T02:29:25;70.10;;;27.97;;
22814;SDS011;11574;51.058;13.712;2023-01-24T02:34:28;63.23;;;27.70;;
22814;SDS011;11574;51.058;13.712;2023-01-24T02:39:32;65.07;;;27.67;;
22814;SDS011;11574;51.058;13.712;2023-01-24T02:44:37;66.13;;;27.47;;
22814;SDS011;11574;51.058;13.712;2023-01-24T02:49:42;63.33;;;26.73;;
22814;SDS011;11574;51.058;13.712;2023-01-24T02:54:44;70.97;;;27.97;;
22814;SDS011;11574;51.058;13.712;2023-01-24T02:59:48;66.57;;;26.70;;
22814;SDS011;11574;51.058;13.712;2023-01-24T03:04:50;65.80;;;26.70;;
22814;SDS011;11574;51.058;13.712;2023-01-24T03:09:52;66.33;;;26.67;;
22814;SDS011;11574;51.058;13.712;2023-01-24T03:14:55;62.07;;;26.37;;
22814;SDS011;11574;51.058;13.712;2023-01-24T03:20:15;66.33;;;26.63;;
22814;SDS011;11574;51.058;13.712;2023-01-24T03:25:35;70.17;;;27.63;;
22814;SDS011;11574;51.058;13.712;2023-01-24T03:30:56;63.47;;;26.43;;
22814;SDS011;11574;51.058;13.712;2023-01-24T03:36:16;65.87;;;26.53;;
22814;SDS011;11574;51.058;13.712;2023-01-24T03:41:19;61.50;;;25.57;;
22814;SDS011;11574;51.058;13.712;2023-01-24T03:46:23;65.83;;;25.93;;
22814;SDS011;11574;51.058;13.712;2023-01-24T03:51:25;60.23;;;24.43;;
22814;SDS011;11574;51.058;13.712;2023-01-24T03:56:45;70.53;;;25.90;;
22814;SDS011;11574;51.058;13.712;2023-01-24T04:01:49;64.47;;;26.20;;
22814;SDS011;11574;51.058;13.712;2023-01-24T04:06:51;62.00;;;24.40;;
22814;SDS011;11574;51.058;13.712;2023-01-24T04:11:53;60.93;;;26.40;;
22814;SDS011;11574;51.058;13.712;2023-01-24T04:16:57;67.20;;;26.07;;
22814;SDS011;11574;51.058;13.712;2023-01-24T04:21:59;60.23;;;25.20;;
22814;SDS011;11574;51.058;13.712;2023-01-24T04:27:01;60.50;;;25.73;;
22814;SDS011;11574;51.058;13.712;2023-01-24T04:32:05;63.30;;;25.00;;
22814;SDS011;11574;51.058;13.712;2023-01-24T04:37:07;63.83;;;25.27;;
22814;SDS011;11574;51.058;13.712;2023-01-24T04:42:09;58.33;;;25.00;;
22814;SDS011;11574;51.058;13.712;2023-01-24T04:47:13;56.87;;;23.93;;
22814;SDS011;11574;51.058;13.712;2023-01-24T04:52:15;54.50;;;23.50;;
22814;SDS011;11574;51.058;13.712;2023-01-24T04:57:17;56.00;;;23.23;;
22814;SDS011;11574;51.058;13.712;2023-01-24T05:02:21;52.97;;;22.27;;
22814;SDS011;11574;51.058;13.712;2023-01-24T05:07:23;55.60;;;24.67;;
22814;SDS011;11574;51.058;13.712;2023-01-24T05:12:25;55.23;;;23.27;;
22814;SDS011;11574;51.058;13.712;2023-01-24T05:17:29;50.37;;;21.77;;
22814;SDS011;11574;51.058;13.712;2023-01-24T05:22:31;54.47;;;22.53;;
22814;SDS011;11574;51.058;13.712;2023-01-24T05:27:33;57.73;;;23.10;;
22814;SDS011;11574;51.058;13.712;2023-01-24T05:32:37;61.30;;;24.77;;
22814;SDS011;11574;51.058;13.712;2023-01-24T05:37:39;49.00;;;21.53;;
22814;SDS011;11574;51.058;13.712;2023-01-24T05:42:42;56.63;;;22.20;;
22814;SDS011;11574;51.058;13.712;2023-01-24T05:47:45;50.70;;;22.63;;
22814;SDS011;11574;51.058;13.712;2023-01-24T05:52:47;55.10;;;22.97;;
22814;SDS011;11574;51.058;13.712;2023-01-24T05:57:49;57.87;;;23.20;;
22814;SDS011;11574;51.058;13.712;2023-01-24T06:02:53;53.87;;;22.83;;
22814;SDS011;11574;51.058;13.712;2023-01-24T06:07:55;52.63;;;23.03;;
22814;SDS011;11574;51.058;13.712;2023-01-24T06:13:00;61.80;;;24.60;;
22814;SDS011;11574;51.058;13.712;2023-01-24T06:18:04;41.57;;;19.33;;
22814;SDS011;11574;51.058;13.712;2023-01-24T06:23:07;58.10;;;22.70;;
22814;SDS011;11574;51.058;13.712;2023-01-24T06:28:09;58.93;;;22.63;;
22814;SDS011;11574;51.058;13.712;2023-01-24T06:33:17;48.53;;;23.27;;
22814;SDS011;11574;51.058;13.712;2023-01-24T06:38:22;51.10;;;23.10;;
22814;SDS011;11574;51.058;13.712;2023-01-24T06:43:24;46.57;;;21.50;;
22814;SDS011;11574;51.058;13.712;2023-01-24T06:48:37;50.50;;;22.17;;
22814;SDS011;11574;51.058;13.712;2023-01-24T06:53:40;49.83;;;22.17;;
22814;SDS011;11574;51.058;13.712;2023-01-24T06:58:42;51.57;;;23.23;;
22814;SDS011;11574;51.058;13.712;2023-01-24T07:03:45;56.17;;;23.20;;
22814;SDS011;11574;51.058;13.712;2023-01-24T07:08:48;53.27;;;22.67;;
22814;SDS011;11574;51.058;13.712;2023-01-24T07:13:55;51.97;;;23.33;;
22814;SDS011;11574;51.058;13.712;2023-01-24T07:19:00;51.73;;;22.63;;
22814;SDS011;11574;51.058;13.712;2023-01-24T07:24:02;53.70;;;23.27;;
22814;SDS011;11574;51.058;13.712;2023-01-24T07:29:04;49.90;;;22.07;;
22814;SDS011;11574;51.058;13.712;2023-01-24T07:34:08;61.47;;;27.23;;
22814;SDS011;11574;51.058;13.712;2023-01-24T07:39:10;57.77;;;23.50;;
22814;SDS011;11574;51.058;13.712;2023-01-24T07:44:12;49.90;;;22.40;;
22814;SDS011;11574;51.058;13.712;2023-01-24T07:49:16;51.23;;;22.50;;
22814;SDS011;11574;51.058;13.712;2023-01-24T07:54:18;48.03;;;21.40;;
22814;SDS011;11574;51.058;13.712;2023-01-24T07:59:20;50.97;;;22.03;;
22814;SDS011;11574;51.058;13.712;2023-01-24T08:04:24;46.60;;;21.30;;
22814;SDS011;11574;51.058;13.712;2023-01-24T08:09:27;44.57;;;20.37;;
22814;SDS011;11574;51.058;13.712;2023-01-24T08:14:29;48.30;;;20.10;;
22814;SDS011;11574;51.058;13.712;2023-01-24T08:19:33;48.37;;;21.30;;
22814;SDS011;11574;51.058;13.712;2023-01-24T08:24:39;50.10;;;20.73;;
22814;SDS011;11574;51.058;13.712;2023-01-24T08:29:41;53.80;;;21.93;;
22814;SDS011;11574;51.058;13.712;2023-01-24T08:34:45;48.00;;;20.70;;
22814;SDS011;11574;51.058;13.712;2023-01-24T08:39:47;49.57;;;20.93;;
22814;SDS011;11574;51.058;13.712;2023-01-24T08:44:49;55.50;;;20.83;;
22814;SDS011;11574;51.058;13.712;2023-01-24T08:49:53;53.60;;;21.20;;
22814;SDS011;11574;51.058;13.712;2023-01-24T08:54:55;50.47;;;20.27;;
22814;SDS011;11574;51.058;13.712;2023-01-24T08:59:57;48.57;;;21.13;;
22814;SDS011;11574;51.058;13.712;2023-01-24T09:05:01;46.20;;;19.93;;
22814;SDS011;11574;51.058;13.712;2023-01-24T09:10:03;53.90;;;21.67;;
22814;SDS011;11574;51.058;13.712;2023-01-24T09:15:06;54.23;;;21.97;;
22814;SDS011;11574;51.058;13.712;2023-01-24T09:20:10;55.43;;;22.73;;
22814;SDS011;11574;51.058;13.712;2023-01-24T09:25:13;58.50;;;23.20;;
22814;SDS011;11574;51.058;13.712;2023-01-24T09:30:15;54.20;;;22.63;;
22814;SDS011;11574;51.058;13.712;2023-01-24T09:35:18;54.33;;;22.70;;
22814;SDS011;11574;51.058;13.712;2023-01-24T09:40:21;59.67;;;23.63;;
22814;SDS011;11574;51.058;13.712;2023-01-24T09:45:27;58.77;;;23.87;;
22814;SDS011;11574;51.058;13.712;2023-01-24T09:50:33;57.80;;;24.83;;
22814;SDS011;11574;51.058;13.712;2023-01-24T09:55:37;61.67;;;22.80;;
22814;SDS011;11574;51.058;13.712;2023-01-24T10:00:41;53.43;;;22.10;;
22814;SDS011;11574;51.058;13.712;2023-01-24T10:05:46;62.67;;;23.60;;
22814;SDS011;11574;51.058;13.712;2023-01-24T10:10:51;58.30;;;23.33;;
22814;SDS011;11574;51.058;13.712;2023-01-24T10:15:56;58.27;;;24.57;;
22814;SDS011;11574;51.058;13.712;2023-01-24T10:21:14;54.13;;;23.80;;
22814;SDS011;11574;51.058;13.712;2023-01-24T10:26:20;54.40;;;23.33;;
22814;SDS011;11574;51.058;13.712;2023-01-24T10:31:24;58.67;;;23.23;;
22814;SDS011;11574;51.058;13.712;2023-01-24T10:36:32;51.93;;;22.87;;
22814;SDS011;11574;51.058;13.712;2023-01-24T10:41:37;60.27;;;23.50;;
22814;SDS011;11574;51.058;13.712;2023-01-24T10:46:51;61.43;;;23.60;;
22814;SDS011;11574;51.058;13.712;2023-01-24T10:52:13;57.97;;;22.80;;
22814;SDS011;11574;51.058;13.712;2023-01-24T10:57:29;62.30;;;24.03;;
22814;SDS011;11574;51.058;13.712;2023-01-24T11:02:34;62.13;;;24.07;;
22814;SDS011;11574;51.058;13.712;2023-01-24T11:07:44;58.70;;;23.87;;
22814;SDS011;11574;51.058;13.712;2023-01-24T11:12:49;61.80;;;23.60;;
22814;SDS011;11574;51.058;13.712;2023-01-24T11:17:54;58.80;;;22.43;;
22814;SDS011;11574;51.058;13.712;2023-01-24T11:23:10;65.73;;;25.40;;
22814;SDS011;11574;51.058;13.712;2023-01-24T11:28:22;64.87;;;25.97;;
22814;SDS011;11574;51.058;13.712;2023-01-24T11:33:29;59.40;;;23.83;;
22814;SDS011;11574;51.058;13.712;2023-01-24T11:38:37;57.43;;;23.70;;
22814;SDS011;11574;51.058;13.712;2023-01-24T11:43:56;68.13;;;23.77;;
22814;SDS011;11574;51.058;13.712;2023-01-24T11:49:15;58.77;;;23.63;;
22814;SDS011;11574;51.058;13.712;2023-01-24T11:54:32;64.53;;;24.47;;
22814;SDS011;11574;51.058;13.712;2023-01-24T11:59:40;68.17;;;25.60;;
22814;SDS011;11574;51.058;13.712;2023-01-24T12:04:53;58.03;;;24.63;;
22814;SDS011;11574;51.058;13.712;2023-01-24T12:10:02;68.20;;;25.43;;
22814;SDS011;11574;51.058;13.712;2023-01-24T12:15:17;57.93;;;24.23;;
22814;SDS011;11574;51.058;13.712;2023-01-24T12:20:24;59.90;;;26.40;;
22814;SDS011;11574;51.058;13.712;2023-01-24T12:25:30;58.53;;;24.80;;
22814;SDS011;11574;51.058;13.712;2023-01-24T12:30:34;60.60;;;24.17;;
22814;SDS011;11574;51.058;13.712;2023-01-24T12:35:39;54.93;;;23.93;;
22814;SDS011;11574;51.058;13.712;2023-01-24T12:40:45;54.13;;;22.57;;
22814;SDS011;11574;51.058;13.712;2023-01-24T12:45:53;45.77;;;20.43;;
22814;SDS011;11574;51.058;13.712;2023-01-24T12:50:57;54.93;;;22.00;;
22814;SDS011;11574;51.058;13.712;2023-01-24T12:56:02;55.97;;;24.07;;
22814;SDS011;11574;51.058;13.712;2023-01-24T13:01:13;55.57;;;22.97;;
22814;SDS011;11574;51.058;13.712;2023-01-24T13:06:22;55.70;;;22.83;;
22814;SDS011;11574;51.058;13.712;2023-01-24T13:11:27;56.93;;;23.43;;
22814;SDS011;11574;51.058;13.712;2023-01-24T13:16:41;48.37;;;22.13;;
22814;SDS011;11574;51.058;13.712;2023-01-24T13:21:48;50.23;;;23.63;;
22814;SDS011;11574;51.058;13.712;2023-01-24T13:27:07;58.90;;;23.37;;
22814;SDS011;11574;51.058;13.712;2023-01-24T13:32:14;53.33;;;22.77;;
22814;SDS011;11574;51.058;13.712;2023-01-24T13:37:19;51.97;;;22.33;;
22814;SDS011;11574;51.058;13.712;2023-01-24T13:42:23;55.43;;;22.93;;
22814;SDS011;11574;51.058;13.712;2023-01-24T13:47:33;46.67;;;22.20;;
22814;SDS011;11574;51.058;13.712;2023-01-24T13:52:37;66.70;;;28.47;;
22814;SDS011;11574;51.058;13.712;2023-01-24T13:57:41;69.23;;;29.90;;
22814;SDS011;11574;51.058;13.712;2023-01-24T14:02:44;68.53;;;27.23;;
22814;SDS011;11574;51.058;13.712;2023-01-24T14:07:59;69.90;;;27.47;;
22814;SDS011;11574;51.058;13.712;2023-01-24T14:13:04;65.67;;;26.77;;
22814;SDS011;11574;51.058;13.712;2023-01-24T14:18:26;68.00;;;26.60;;
22814;SDS011;11574;51.058;13.712;2023-01-24T14:23:39;66.93;;;25.70;;
22814;SDS011;11574;51.058;13.712;2023-01-24T14:28:44;68.53;;;27.03;;
22814;SDS011;11574;51.058;13.712;2023-01-24T14:33:47;67.07;;;26.67;;
22814;SDS011;11574;51.058;13.712;2023-01-24T14:39:11;58.83;;;24.67;;
22814;SDS011;11574;51.058;13.712;2023-01-24T14:44:16;61.57;;;24.67;;
22814;SDS011;11574;51.058;13.712;2023-01-24T14:49:25;68.07;;;25.83;;
22814;SDS011;11574;51.058;13.712;2023-01-24T14:54:27;69.50;;;26.37;;
22814;SDS011;11574;51.058;13.712;2023-01-24T14:59:31;71.40;;;27.60;;
22814;SDS011;11574;51.058;13.712;2023-01-24T15:04:33;63.07;;;27.10;;
22814;SDS011;11574;51.058;13.712;2023-01-24T15:09:35;63.37;;;24.90;;
22814;SDS011;11574;51.058;13.712;2023-01-24T15:14:38;64.13;;;25.90;;
22814;SDS011;11574;51.058;13.712;2023-01-24T15:19:43;64.83;;;27.37;;
22814;SDS011;11574;51.058;13.712;2023-01-24T15:24:48;63.20;;;25.37;;
22814;SDS011;11574;51.058;13.712;2023-01-24T15:30:06;57.90;;;23.53;;
22814;SDS011;11574;51.058;13.712;2023-01-24T15:35:13;55.90;;;24.80;;
22814;SDS011;11574;51.058;13.712;2023-01-24T15:40:17;61.07;;;25.37;;
22814;SDS011;11574;51.058;13.712;2023-01-24T15:45:20;64.27;;;26.07;;
22814;SDS011;11574;51.058;13.712;2023-01-24T15:50:23;56.13;;;25.17;;
22814;SDS011;11574;51.058;13.712;2023-01-24T15:55:43;65.53;;;25.33;;
22814;SDS011;11574;51.058;13.712;2023-01-24T16:00:51;65.27;;;25.33;;
22814;SDS011;11574;51.058;13.712;2023-01-24T16:05:54;63.90;;;25.33;;
22814;SDS011;11574;51.058;13.712;2023-01-24T16:10:56;64.10;;;26.30;;
22814;SDS011;11574;51.058;13.712;2023-01-24T16:16:00;59.40;;;23.53;;
22814;SDS011;11574;51.058;13.712;2023-01-24T16:21:03;59.10;;;23.30;;
22814;SDS011;11574;51.058;13.712;2023-01-24T16:26:07;58.30;;;23.20;;
22814;SDS011;11574;51.058;13.712;2023-01-24T16:31:14;59.93;;;24.23;;
22814;SDS011;11574;51.058;13.712;2023-01-24T16:36:17;61.80;;;24.23;;
22814;SDS011;11574;51.058;13.712;2023-01-24T16:41:20;60.53;;;24.23;;
22814;SDS011;11574;51.058;13.712;2023-01-24T16:46:24;61.67;;;25.00;;
22814;SDS011;11574;51.058;13.712;2023-01-24T16:51:28;63.33;;;25.03;;
22814;SDS011;11574;51.058;13.712;2023-01-24T16:56:30;60.17;;;25.30;;
22814;SDS011;11574;51.058;13.712;2023-01-24T17:01:34;66.17;;;25.37;;
22814;SDS011;11574;51.058;13.712;2023-01-24T17:06:36;63.13;;;25.17;;
22814;SDS011;11574;51.058;13.712;2023-01-24T17:11:38;56.40;;;25.07;;
22814;SDS011;11574;51.058;13.712;2023-01-24T17:16:42;55.73;;;23.43;;
22814;SDS011;11574;51.058;13.712;2023-01-24T17:21:44;62.37;;;25.60;;
22814;SDS011;11574;51.058;13.712;2023-01-24T17:26:47;58.77;;;25.20;;
22814;SDS011;11574;51.058;13.712;2023-01-24T17:31:51;61.27;;;24.80;;
22814;SDS011;11574;51.058;13.712;2023-01-24T17:36:53;62.83;;;25.27;;
22814;SDS011;11574;51.058;13.712;2023-01-24T17:41:57;54.67;;;24.17;;
22814;SDS011;11574;51.058;13.712;2023-01-24T17:47:00;55.77;;;23.60;;
22814;SDS011;11574;51.058;13.712;2023-01-24T17:52:03;49.70;;;22.27;;
22814;SDS011;11574;51.058;13.712;2023-01-24T17:57:05;45.17;;;21.07;;
22814;SDS011;11574;51.058;13.712;2023-01-24T18:02:09;49.30;;;22.93;;
22814;SDS011;11574;51.058;13.712;2023-01-24T18:07:11;45.80;;;20.03;;
22814;SDS011;11574;51.058;13.712;2023-01-24T18:12:13;49.90;;;22.00;;
22814;SDS011;11574;51.058;13.712;2023-01-24T18:17:17;46.40;;;20.67;;
22814;SDS011;11574;51.058;13.712;2023-01-24T18:22:19;43.63;;;19.60;;
22814;SDS011;11574;51.058;13.712;2023-01-24T18:27:21;46.67;;;21.03;;
22814;SDS011;11574;51.058;13.712;2023-01-24T18:32:25;48.20;;;20.77;;
22814;SDS011;11574;51.058;13.712;2023-01-24T18:37:27;44.20;;;20.70;;
22814;SDS011;11574;51.058;13.712;2023-01-24T18:42:29;49.00;;;21.03;;
22814;SDS011;11574;51.058;13.712;2023-01-24T18:47:33;43.57;;;19.40;;
22814;SDS011;11574;51.058;13.712;2023-01-24T18:52:35;42.03;;;18.43;;
22814;SDS011;11574;51.058;13.712;2023-01-24T18:57:37;36.77;;;17.73;;
22814;SDS011;11574;51.058;13.712;2023-01-24T19:02:43;45.13;;;20.17;;
22814;SDS011;11574;51.058;13.712;2023-01-24T19:07:46;39.63;;;19.07;;
22814;SDS011;11574;51.058;13.712;2023-01-24T19:12:50;36.13;;;17.60;;
22814;SDS011;11574;51.058;13.712;2023-01-24T19:17:54;47.63;;;20.10;;
22814;SDS011;11574;51.058;13.712;2023-01-24T19:22:56;33.53;;;16.23;;
22814;SDS011;11574;51.058;13.712;2023-01-24T19:27:59;36.90;;;17.17;;
22814;SDS011;11574;51.058;13.712;2023-01-24T19:33:02;36.27;;;17.67;;
22814;SDS011;11574;51.058;13.712;2023-01-24T19:38:05;35.63;;;16.87;;
22814;SDS011;11574;51.058;13.712;2023-01-24T19:43:07;36.27;;;16.93;;
22814;SDS011;11574;51.058;13.712;2023-01-24T19:48:10;42.63;;;18.27;;
22814;SDS011;11574;51.058;13.712;2023-01-24T19:53:13;43.57;;;19.37;;
22814;SDS011;11574;51.058;13.712;2023-01-24T19:58:16;36.97;;;16.83;;
22814;SDS011;11574;51.058;13.712;2023-01-24T20:03:19;34.53;;;17.20;;
22814;SDS011;11574;51.058;13.712;2023-01-24T20:08:22;41.93;;;19.23;;
22814;SDS011;11574;51.058;13.712;2023-01-24T20:13:24;35.13;;;16.93;;
22814;SDS011;11574;51.058;13.712;2023-01-24T20:18:28;33.60;;;17.03;;
22814;SDS011;11574;51.058;13.712;2023-01-24T20:23:30;37.97;;;17.20;;
22814;SDS011;11574;51.058;13.712;2023-01-24T20:28:33;33.80;;;16.63;;
22814;SDS011;11574;51.058;13.712;2023-01-24T20:33:37;36.30;;;16.50;;
22814;SDS011;11574;51.058;13.712;2023-01-24T20:38:39;33.77;;;16.10;;
22814;SDS011;11574;51.058;13.712;2023-01-24T20:43:42;34.67;;;17.80;;
22814;SDS011;11574;51.058;13.712;2023-01-24T20:48:49;31.53;;;16.43;;
22814;SDS011;11574;51.058;13.712;2023-01-24T20:53:52;39.77;;;16.13;;
22814;SDS011;11574;51.058;13.712;2023-01-24T20:58:55;34.33;;;16.27;;
22814;SDS011;11574;51.058;13.712;2023-01-24T21:03:59;34.43;;;16.33;;
22814;SDS011;11574;51.058;13.712;2023-01-24T21:09:05;33.17;;;15.93;;
22814;SDS011;11574;51.058;13.712;2023-01-24T21:14:10;40.37;;;16.90;;
22814;SDS011;11574;51.058;13.712;2023-01-24T21:19:14;36.63;;;17.30;;
22814;SDS011;11574;51.058;13.712;2023-01-24T21:24:18;36.00;;;16.73;;
22814;SDS011;11574;51.058;13.712;2023-01-24T21:29:20;32.17;;;16.50;;
22814;SDS011;11574;51.058;13.712;2023-01-24T21:34:24;35.27;;;16.53;;
22814;SDS011;11574;51.058;13.712;2023-01-24T21:39:26;39.00;;;17.80;;
22814;SDS011;11574;51.058;13.712;2023-01-24T21:44:29;35.77;;;17.20;;
22814;SDS011;11574;51.058;13.712;2023-01-24T21:49:33;33.30;;;16.67;;
22814;SDS011;11574;51.058;13.712;2023-01-24T21:54:35;29.17;;;15.63;;
22814;SDS011;11574;51.058;13.712;2023-01-24T21:59:38;34.77;;;17.00;;
22814;SDS011;11574;51.058;13.712;2023-01-24T22:04:42;36.10;;;16.93;;
22814;SDS011;11574;51.058;13.712;2023-01-24T22:09:45;37.93;;;17.80;;
22814;SDS011;11574;51.058;13.712;2023-01-24T22:14:47;33.20;;;15.93;;
22814;SDS011;11574;51.058;13.712;2023-01-24T22:19:52;37.40;;;17.07;;
22814;SDS011;11574;51.058;13.712;2023-01-24T22:24:59;32.20;;;16.63;;
22814;SDS011;11574;51.058;13.712;2023-01-24T22:30:02;34.30;;;16.97;;
22814;SDS011;11574;51.058;13.712;2023-01-24T22:35:07;34.10;;;16.73;;
22814;SDS011;11574;51.058;13.712;2023-01-24T22:40:14;36.20;;;16.87;;
22814;SDS011;11574;51.058;13.712;2023-01-24T22:45:17;34.17;;;16.43;;
22814;SDS011;11574;51.058;13.712;2023-01-24T22:50:21;34.47;;;16.53;;
22814;SDS011;11574;51.058;13.712;2023-01-24T22:55:23;36.87;;;16.40;;
22814;SDS011;11574;51.058;13.712;2023-01-24T23:00:25;34.13;;;16.23;;
22814;SDS011;11574;51.058;13.712;2023-01-24T23:05:29;37.60;;;16.17;;
22814;SDS011;11574;51.058;13.712;2023-01-24T23:10:31;34.97;;;16.00;;
22814;SDS011;11574;51.058;13.712;2023-01-24T23:15:33;38.03;;;16.40;;
22814;SDS011;11574;51.058;13.712;2023-01-24T23:20:54;31.57;;;15.03;;
22814;SDS011;11574;51.058;13.712;2023-01-24T23:26:14;31.73;;;15.80;;
22814;SDS011;11574;51.058;13.712;2023-01-24T23:31:16;34.00;;;15.87;;
22814;SDS011;11574;51.058;13.712;2023-01-24T23:36:21;32.37;;;15.77;;
22814;SDS011;11574;51.058;13.712;2023-01-24T23:41:24;33.30;;;16.77;;
22814;SDS011;11574;51.058;13.712;2023-01-24T23:46:26;31.53;;;14.90;;
22814;SDS011;11574;51.058;13.712;2023-01-24T23:51:29;29.47;;;15.27;;
22814;SDS011;11574;51.058;13.712;2023-01-24T23:56:31;34.70;;;16.00;;
